createdAt,value
2017-10-13T00:00:38.286Z,12.49
2017-10-13T00:01:38.274Z,12.42
2017-10-13T00:02:38.260Z,12.52
2017-10-13T00:03:38.242Z,12.49
2017-10-13T00:04:38.566Z,12.54
2017-10-13T00:05:38.544Z,12.51
2017-10-13T00:06:38.206Z,12.52
2017-10-13T00:07:38.189Z,12.52
2017-10-13T00:08:38.173Z,12.64
2017-10-13T00:09:38.484Z,12.57
2017-10-13T00:10:38.473Z,12.67
2017-10-13T00:11:38.119Z,12.66
2017-10-13T00:12:38.102Z,12.67
2017-10-13T00:13:37.758Z,12.71
2017-10-13T00:14:38.077Z,12.71
2017-10-13T00:15:38.059Z,12.79
2017-10-13T00:16:38.045Z,12.74
2017-10-13T00:17:38.367Z,12.79
2017-10-13T00:18:38.016Z,12.87
2017-10-13T00:19:37.663Z,12.82
2017-10-13T00:20:37.984Z,12.78
2017-10-13T00:21:38.299Z,12.85
2017-10-13T00:22:38.694Z,12.77
2017-10-13T00:23:37.940Z,12.81
2017-10-13T00:24:37.923Z,12.85
2017-10-13T00:25:38.241Z,12.78
2017-10-13T00:26:37.563Z,12.75
2017-10-13T00:27:38.207Z,12.85
2017-10-13T00:28:37.871Z,12.75
2017-10-13T00:29:37.848Z,12.81
2017-10-13T00:30:38.367Z,12.85
2017-10-13T00:31:37.817Z,12.87
2017-10-13T00:32:38.146Z,12.79
2017-10-13T00:33:37.795Z,12.82
2017-10-13T00:34:37.777Z,12.79
2017-10-13T00:35:37.419Z,12.77
2017-10-13T00:36:37.745Z,12.79
2017-10-13T00:37:38.061Z,12.79
2017-10-13T00:38:37.710Z,12.82
2017-10-13T00:39:37.697Z,12.79
2017-10-13T00:40:38.015Z,12.74
2017-10-13T00:41:37.663Z,12.81
2017-10-13T00:42:37.674Z,12.78
2017-10-13T00:43:37.635Z,12.78
2017-10-13T00:44:37.622Z,12.82
2017-10-13T00:45:37.952Z,12.82
2017-10-13T00:46:37.591Z,12.75
2017-10-13T00:47:37.573Z,12.74
2017-10-13T00:48:37.223Z,12.78
2017-10-13T00:49:37.878Z,12.75
2017-10-13T00:50:37.524Z,12.7
2017-10-13T00:51:37.854Z,12.7
2017-10-13T00:52:37.833Z,12.71
2017-10-13T00:53:37.483Z,12.75
2017-10-13T00:54:37.134Z,12.7
2017-10-13T00:55:37.451Z,12.69
2017-10-13T00:56:37.441Z,12.66
2017-10-13T00:57:37.085Z,12.67
2017-10-13T00:58:37.406Z,12.66
2017-10-13T00:59:37.391Z,12.67
2017-10-13T01:00:37.374Z,12.75
2017-10-13T01:01:37.697Z,12.74
2017-10-13T01:02:37.686Z,12.69
2017-10-13T01:03:37.330Z,12.7
2017-10-13T01:04:37.312Z,12.7
2017-10-13T01:05:36.968Z,12.69
2017-10-13T01:06:37.330Z,12.66
2017-10-13T01:07:37.288Z,12.71
2017-10-13T01:08:37.596Z,12.7
2017-10-13T01:09:37.239Z,12.64
2017-10-13T01:10:36.892Z,12.67
2017-10-13T01:11:36.878Z,12.66
2017-10-13T01:12:37.528Z,12.66
2017-10-13T01:13:36.846Z,12.66
2017-10-13T01:14:37.161Z,12.69
2017-10-13T01:15:37.146Z,12.67
2017-10-13T01:16:36.800Z,12.67
2017-10-13T01:17:37.121Z,12.66
2017-10-13T01:18:37.441Z,12.63
2017-10-13T01:19:37.436Z,12.64
2017-10-13T01:20:37.081Z,12.54
2017-10-13T01:21:37.068Z,12.56
2017-10-13T01:22:37.047Z,12.57
2017-10-13T01:23:37.029Z,12.6
2017-10-13T01:24:37.342Z,12.52
2017-10-13T01:25:36.997Z,12.51
2017-10-13T01:26:36.983Z,12.63
2017-10-13T01:27:36.964Z,12.57
2017-10-13T01:28:36.948Z,12.6
2017-10-13T01:29:36.942Z,12.64
2017-10-13T01:30:36.920Z,12.64
2017-10-13T01:31:36.568Z,12.52
2017-10-13T01:32:36.888Z,12.49
2017-10-13T01:33:36.881Z,12.49
2017-10-13T01:34:37.192Z,12.51
2017-10-13T01:35:36.844Z,12.51
2017-10-13T01:36:36.827Z,12.59
2017-10-13T01:37:37.141Z,12.57
2017-10-13T01:38:36.795Z,12.51
2017-10-13T01:39:36.782Z,12.46
2017-10-13T01:40:36.770Z,12.46
2017-10-13T01:41:36.765Z,12.44
2017-10-13T01:42:36.406Z,12.46
2017-10-13T01:43:37.057Z,12.49
2017-10-13T01:44:36.708Z,12.51
2017-10-13T01:45:36.698Z,12.56
2017-10-13T01:46:36.673Z,12.49
2017-10-13T01:47:36.333Z,12.49
2017-10-13T01:48:36.974Z,12.48
2017-10-13T01:49:36.628Z,12.49
2017-10-13T01:50:36.611Z,12.56
2017-10-13T01:51:36.945Z,12.52
2017-10-13T01:52:36.251Z,12.44
2017-10-13T01:53:36.574Z,12.48
2017-10-13T01:54:36.228Z,12.46
2017-10-13T01:55:36.548Z,12.52
2017-10-13T01:56:36.525Z,12.52
2017-10-13T01:57:36.511Z,12.48
2017-10-13T01:58:36.838Z,12.59
2017-10-13T01:59:36.479Z,12.48
2017-10-13T02:00:36.463Z,12.57
2017-10-13T02:01:36.796Z,12.54
2017-10-13T02:02:36.431Z,12.52
2017-10-13T02:03:36.417Z,12.45
2017-10-13T02:04:36.735Z,12.51
2017-10-13T02:05:36.718Z,12.45
2017-10-13T02:06:36.372Z,12.46
2017-10-13T02:07:36.352Z,12.51
2017-10-13T02:08:36.674Z,12.46
2017-10-13T02:09:36.665Z,12.42
2017-10-13T02:10:36.658Z,12.48
2017-10-13T02:11:36.678Z,12.37
2017-10-13T02:12:36.608Z,12.39
2017-10-13T02:13:35.924Z,12.48
2017-10-13T02:14:36.247Z,12.51
2017-10-13T02:15:35.893Z,12.52
2017-10-13T02:16:36.215Z,12.48
2017-10-13T02:17:35.865Z,12.46
2017-10-13T02:18:36.513Z,12.52
2017-10-13T02:19:36.169Z,12.46
2017-10-13T02:20:36.488Z,12.52
2017-10-13T02:21:35.806Z,12.45
2017-10-13T02:22:36.121Z,12.42
2017-10-13T02:23:36.120Z,12.41
2017-10-13T02:24:36.420Z,12.42
2017-10-13T02:25:36.404Z,12.39
2017-10-13T02:26:36.060Z,12.39
2017-10-13T02:27:36.045Z,12.41
2017-10-13T02:28:36.027Z,12.39
2017-10-13T02:29:36.010Z,12.34
2017-10-13T02:30:35.665Z,12.45
2017-10-13T02:31:35.983Z,12.37
2017-10-13T02:32:36.307Z,12.34
2017-10-13T02:33:35.632Z,12.34
2017-10-13T02:34:35.608Z,12.34
2017-10-13T02:35:36.259Z,12.24
2017-10-13T02:36:36.252Z,12.23
2017-10-13T02:37:35.888Z,12.29
2017-10-13T02:38:35.881Z,12.27
2017-10-13T02:39:35.864Z,12.24
2017-10-13T02:40:35.540Z,12.29
2017-10-13T02:41:35.516Z,12.24
2017-10-13T02:42:35.493Z,12.24
2017-10-13T02:43:35.465Z,12.21
2017-10-13T02:44:35.785Z,12.26
2017-10-13T02:45:35.764Z,12.24
2017-10-13T02:46:35.747Z,12.37
2017-10-13T02:47:35.401Z,12.38
2017-10-13T02:48:35.734Z,12.39
2017-10-13T02:49:35.709Z,12.31
2017-10-13T02:50:35.696Z,12.38
2017-10-13T02:51:36.008Z,12.37
2017-10-13T02:52:36.004Z,12.41
2017-10-13T02:53:35.982Z,12.46
2017-10-13T02:54:35.971Z,12.49
2017-10-13T02:55:35.968Z,12.48
2017-10-13T02:56:35.596Z,12.39
2017-10-13T02:57:35.578Z,12.48
2017-10-13T02:58:35.564Z,12.42
2017-10-13T02:59:35.890Z,12.41
2017-10-13T03:00:35.552Z,12.46
2017-10-13T03:01:35.523Z,12.49
2017-10-13T03:02:35.505Z,12.6
2017-10-13T03:03:35.492Z,12.51
2017-10-13T03:04:35.476Z,12.52
2017-10-13T03:05:35.803Z,12.52
2017-10-13T03:06:35.445Z,12.45
2017-10-13T03:07:35.762Z,12.56
2017-10-13T03:08:35.743Z,12.62
2017-10-13T03:09:35.750Z,12.51
2017-10-13T03:10:35.383Z,12.6
2017-10-13T03:11:35.372Z,12.52
2017-10-13T03:12:35.379Z,12.54
2017-10-13T03:13:34.999Z,12.51
2017-10-13T03:14:34.988Z,12.52
2017-10-13T03:15:35.655Z,12.48
2017-10-13T03:16:35.298Z,12.45
2017-10-13T03:17:35.283Z,12.49
2017-10-13T03:18:35.260Z,12.52
2017-10-13T03:19:34.934Z,12.49
2017-10-13T03:20:35.226Z,12.44
2017-10-13T03:21:35.226Z,12.39
2017-10-13T03:22:35.203Z,12.41
2017-10-13T03:23:34.856Z,12.44
2017-10-13T03:24:34.838Z,12.41
2017-10-13T03:25:34.818Z,12.42
2017-10-13T03:26:35.132Z,12.39
2017-10-13T03:27:34.804Z,12.38
2017-10-13T03:28:35.111Z,12.21
2017-10-13T03:29:34.756Z,12.34
2017-10-13T03:30:34.755Z,12.24
2017-10-13T03:31:34.723Z,12.26
2017-10-13T03:32:35.048Z,12.24
2017-10-13T03:33:35.357Z,12.19
2017-10-13T03:34:35.012Z,12.2
2017-10-13T03:35:34.997Z,12.16
2017-10-13T03:36:34.648Z,12.19
2017-10-13T03:37:34.982Z,12.15
2017-10-13T03:38:34.957Z,12.11
2017-10-13T03:39:35.273Z,12.09
2017-10-13T03:40:35.262Z,12.08
2017-10-13T03:41:34.904Z,12.04
2017-10-13T03:42:34.883Z,12.02
2017-10-13T03:43:35.211Z,12.13
2017-10-13T03:44:35.187Z,12.06
2017-10-13T03:45:35.183Z,11.97
2017-10-13T03:46:34.823Z,11.99
2017-10-13T03:47:34.822Z,12.01
2017-10-13T03:48:34.795Z,11.97
2017-10-13T03:49:35.113Z,11.97
2017-10-13T03:50:34.765Z,11.94
2017-10-13T03:51:34.748Z,11.97
2017-10-13T03:52:35.064Z,11.94
2017-10-13T03:53:35.051Z,11.93
2017-10-13T03:54:34.703Z,12.06
2017-10-13T03:55:35.016Z,12.04
2017-10-13T03:56:35.011Z,12.01
2017-10-13T03:57:34.655Z,11.96
2017-10-13T03:58:34.973Z,11.97
2017-10-13T03:59:34.302Z,12.09
2017-10-13T04:00:34.608Z,11.9
2017-10-13T04:01:34.270Z,12.02
2017-10-13T04:02:34.243Z,11.96
2017-10-13T04:03:34.226Z,11.99
2017-10-13T04:04:34.215Z,11.97
2017-10-13T04:05:34.196Z,11.97
2017-10-13T04:06:34.509Z,11.94
2017-10-13T04:07:34.827Z,11.9
2017-10-13T04:08:34.868Z,11.89
2017-10-13T04:09:34.468Z,11.87
2017-10-13T04:10:34.454Z,11.77
2017-10-13T04:11:34.443Z,11.82
2017-10-13T04:12:34.755Z,11.85
2017-10-13T04:13:34.737Z,11.8
2017-10-13T04:14:34.727Z,11.68
2017-10-13T04:15:34.368Z,11.77
2017-10-13T04:16:34.367Z,11.7
2017-10-13T04:17:34.671Z,11.72
2017-10-13T04:18:34.664Z,11.65
2017-10-13T04:19:34.324Z,11.65
2017-10-13T04:20:33.956Z,11.67
2017-10-13T04:21:34.608Z,11.61
2017-10-13T04:22:34.595Z,11.61
2017-10-13T04:23:34.450Z,11.64
2017-10-13T04:24:34.229Z,11.64
2017-10-13T04:25:34.217Z,11.64
2017-10-13T04:26:34.199Z,11.62
2017-10-13T04:27:34.181Z,11.67
2017-10-13T04:28:34.501Z,11.65
2017-10-13T04:29:34.491Z,11.67
2017-10-13T04:30:33.797Z,11.62
2017-10-13T04:31:34.451Z,11.72
2017-10-13T04:32:33.777Z,11.65
2017-10-13T04:33:34.426Z,11.82
2017-10-13T04:34:34.420Z,11.78
2017-10-13T04:35:34.391Z,11.8
2017-10-13T04:36:33.718Z,11.82
2017-10-13T04:37:33.688Z,11.77
2017-10-13T04:38:34.019Z,11.8
2017-10-13T04:39:34.332Z,11.9
2017-10-13T04:40:33.971Z,11.89
2017-10-13T04:41:33.958Z,11.89
2017-10-13T04:42:33.951Z,11.77
2017-10-13T04:43:33.927Z,11.8
2017-10-13T04:44:33.929Z,11.78
2017-10-13T04:45:33.585Z,11.8
2017-10-13T04:46:33.907Z,11.9
2017-10-13T04:47:33.889Z,11.75
2017-10-13T04:48:33.849Z,11.85
2017-10-13T04:49:33.850Z,11.86
2017-10-13T04:50:33.491Z,11.96
2017-10-13T04:51:34.143Z,11.87
2017-10-13T04:52:34.124Z,11.93
2017-10-13T04:53:34.108Z,11.96
2017-10-13T04:54:33.762Z,11.97
2017-10-13T04:55:33.738Z,11.9
2017-10-13T04:56:33.725Z,11.85
2017-10-13T04:57:33.709Z,11.85
2017-10-13T04:58:34.026Z,11.97
2017-10-13T04:59:34.013Z,11.99
2017-10-13T05:00:33.662Z,11.94
2017-10-13T05:01:33.656Z,11.93
2017-10-13T05:02:33.647Z,12.08
2017-10-13T05:03:33.949Z,12.09
2017-10-13T05:04:33.604Z,12.12
2017-10-13T05:05:33.262Z,12.24
2017-10-13T05:06:33.916Z,12.16
2017-10-13T05:07:33.893Z,12.24
2017-10-13T05:08:33.206Z,12.21
2017-10-13T05:09:33.194Z,12.26
2017-10-13T05:10:33.844Z,12.29
2017-10-13T05:11:33.831Z,12.33
2017-10-13T05:12:33.480Z,12.42
2017-10-13T05:13:33.800Z,12.34
2017-10-13T05:14:33.778Z,12.41
2017-10-13T05:15:33.441Z,12.46
2017-10-13T05:16:33.415Z,12.51
2017-10-13T05:17:33.745Z,12.45
2017-10-13T05:18:33.726Z,12.48
2017-10-13T05:19:33.374Z,12.48
2017-10-13T05:20:33.029Z,12.52
2017-10-13T05:21:33.341Z,12.45
2017-10-13T05:22:33.329Z,12.48
2017-10-13T05:23:33.655Z,12.54
2017-10-13T05:24:33.294Z,12.52
2017-10-13T05:25:32.942Z,12.51
2017-10-13T05:26:32.932Z,12.6
2017-10-13T05:27:33.599Z,12.63
2017-10-13T05:28:33.236Z,12.67
2017-10-13T05:29:33.554Z,12.64
2017-10-13T05:30:33.210Z,12.56
2017-10-13T05:31:33.196Z,12.6
2017-10-13T05:32:33.515Z,12.63
2017-10-13T05:33:33.157Z,12.67
2017-10-13T05:34:33.480Z,12.66
2017-10-13T05:35:32.792Z,12.69
2017-10-13T05:36:33.127Z,12.71
2017-10-13T05:37:33.469Z,12.71
2017-10-13T05:38:33.083Z,12.79
2017-10-13T05:39:32.730Z,12.78
2017-10-13T05:40:33.049Z,12.84
2017-10-13T05:41:33.038Z,12.82
2017-10-13T05:42:33.358Z,12.93
2017-10-13T05:43:33.337Z,12.95
2017-10-13T05:44:32.656Z,12.89
2017-10-13T05:45:32.638Z,12.88
2017-10-13T05:46:33.289Z,12.95
2017-10-13T05:47:32.943Z,12.97
2017-10-13T05:48:33.259Z,12.99
2017-10-13T05:49:32.915Z,12.95
2017-10-13T05:50:32.568Z,13.02
2017-10-13T05:51:32.886Z,12.99
2017-10-13T05:52:33.201Z,12.96
2017-10-13T05:53:32.860Z,12.99
2017-10-13T05:54:32.510Z,13.02
2017-10-13T05:55:33.153Z,12.95
2017-10-13T05:56:32.815Z,12.99
2017-10-13T05:57:32.793Z,13.03
2017-10-13T05:58:32.783Z,13.02
2017-10-13T05:59:32.474Z,13.09
2017-10-13T06:00:33.084Z,13.04
2017-10-13T06:01:32.741Z,13.09
2017-10-13T06:02:32.723Z,13.07
2017-10-13T06:03:32.713Z,13.04
2017-10-13T06:04:32.691Z,13.03
2017-10-13T06:05:32.394Z,13.2
2017-10-13T06:06:32.674Z,13.17
2017-10-13T06:07:32.979Z,13.12
2017-10-13T06:08:32.628Z,13.09
2017-10-13T06:09:32.948Z,13.14
2017-10-13T06:10:32.602Z,13.14
2017-10-13T06:11:32.595Z,13.22
2017-10-13T06:12:32.914Z,13.15
2017-10-13T06:13:32.550Z,13.11
2017-10-13T06:14:32.206Z,13.11
2017-10-13T06:15:32.571Z,13.14
2017-10-13T06:16:32.507Z,13.15
2017-10-13T06:17:32.827Z,13.2
2017-10-13T06:18:32.817Z,13.21
2017-10-13T06:19:32.458Z,13.18
2017-10-13T06:20:32.788Z,13.17
2017-10-13T06:21:32.103Z,13.17
2017-10-13T06:22:32.419Z,13.22
2017-10-13T06:23:32.941Z,13.21
2017-10-13T06:24:32.729Z,13.18
2017-10-13T06:25:32.750Z,13.22
2017-10-13T06:26:32.703Z,13.29
2017-10-13T06:27:32.675Z,13.2
2017-10-13T06:28:32.332Z,13.32
2017-10-13T06:29:32.659Z,13.22
2017-10-13T06:30:32.296Z,13.29
2017-10-13T06:31:32.624Z,13.33
2017-10-13T06:32:32.276Z,13.32
2017-10-13T06:33:32.259Z,13.43
2017-10-13T06:34:32.266Z,13.43
2017-10-13T06:35:32.564Z,13.3
2017-10-13T06:36:32.559Z,13.44
2017-10-13T06:37:32.205Z,13.41
2017-10-13T06:38:32.185Z,13.41
2017-10-13T06:39:32.171Z,13.47
2017-10-13T06:40:32.153Z,13.52
2017-10-13T06:41:31.808Z,13.51
2017-10-13T06:42:32.463Z,13.49
2017-10-13T06:43:32.437Z,13.56
2017-10-13T06:44:32.448Z,13.62
2017-10-13T06:45:31.743Z,13.54
2017-10-13T06:46:32.400Z,13.61
2017-10-13T06:47:32.381Z,13.63
2017-10-13T06:48:31.707Z,13.7
2017-10-13T06:49:32.016Z,13.63
2017-10-13T06:50:31.697Z,13.71
2017-10-13T06:51:31.659Z,13.71
2017-10-13T06:52:31.990Z,13.73
2017-10-13T06:53:32.299Z,13.67
2017-10-13T06:54:32.280Z,13.81
2017-10-13T06:55:31.606Z,13.89
2017-10-13T06:56:32.260Z,13.79
2017-10-13T06:57:31.572Z,13.79
2017-10-13T06:58:32.222Z,13.8
2017-10-13T06:59:31.876Z,13.81
2017-10-13T07:00:31.880Z,13.76
2017-10-13T07:01:31.855Z,13.92
2017-10-13T07:02:31.838Z,13.87
2017-10-13T07:03:32.174Z,13.77
2017-10-13T07:04:32.157Z,13.84
2017-10-13T07:05:31.462Z,13.79
2017-10-13T07:06:31.775Z,13.81
2017-10-13T07:07:31.766Z,13.84
2017-10-13T07:08:32.092Z,13.87
2017-10-13T07:09:31.397Z,13.77
2017-10-13T07:10:31.725Z,13.87
2017-10-13T07:11:32.032Z,13.87
2017-10-13T07:12:31.691Z,13.87
2017-10-13T07:13:31.685Z,13.71
2017-10-13T07:14:31.662Z,13.79
2017-10-13T07:15:31.642Z,13.79
2017-10-13T07:16:31.630Z,13.77
2017-10-13T07:17:31.621Z,13.77
2017-10-13T07:18:31.614Z,13.77
2017-10-13T07:19:31.927Z,13.81
2017-10-13T07:20:31.906Z,13.83
2017-10-13T07:21:31.578Z,13.83
2017-10-13T07:22:31.546Z,13.81
2017-10-13T07:23:31.867Z,13.87
2017-10-13T07:24:31.511Z,13.91
2017-10-13T07:25:31.503Z,13.91
2017-10-13T07:26:31.816Z,13.99
2017-10-13T07:27:31.138Z,14.02
2017-10-13T07:28:31.798Z,14.09
2017-10-13T07:29:31.778Z,14.1
2017-10-13T07:30:31.432Z,14.13
2017-10-13T07:31:31.467Z,14.13
2017-10-13T07:32:31.738Z,14.16
2017-10-13T07:33:31.397Z,14.27
2017-10-13T07:34:31.388Z,14.25
2017-10-13T07:35:31.032Z,14.29
2017-10-13T07:36:31.008Z,14.28
2017-10-13T07:37:31.011Z,14.35
2017-10-13T07:38:31.647Z,14.35
2017-10-13T07:39:31.310Z,14.32
2017-10-13T07:40:31.293Z,14.44
2017-10-13T07:41:31.611Z,14.43
2017-10-13T07:42:31.259Z,14.49
2017-10-13T07:43:31.595Z,14.44
2017-10-13T07:44:31.252Z,14.47
2017-10-13T07:45:31.554Z,14.53
2017-10-13T07:46:31.544Z,14.6
2017-10-13T07:47:31.192Z,14.56
2017-10-13T07:48:31.181Z,14.6
2017-10-13T07:49:31.164Z,14.67
2017-10-13T07:50:31.150Z,14.68
2017-10-13T07:51:30.804Z,14.71
2017-10-13T07:52:31.126Z,14.65
2017-10-13T07:53:31.129Z,14.75
2017-10-13T07:54:31.106Z,14.69
2017-10-13T07:55:31.438Z,14.75
2017-10-13T07:56:30.735Z,14.75
2017-10-13T07:57:30.718Z,14.84
2017-10-13T07:58:31.376Z,14.81
2017-10-13T07:59:31.023Z,14.86
2017-10-13T08:00:31.346Z,14.94
2017-10-13T08:01:31.003Z,14.95
2017-10-13T08:02:30.984Z,14.91
2017-10-13T08:03:31.307Z,14.95
2017-10-13T08:04:30.963Z,14.93
2017-10-13T08:05:30.961Z,14.99
2017-10-13T08:06:30.932Z,15.02
2017-10-13T08:07:31.249Z,15.06
2017-10-13T08:08:31.241Z,15.11
2017-10-13T08:09:31.223Z,15.17
2017-10-13T08:10:30.551Z,15.03
2017-10-13T08:11:30.868Z,15.11
2017-10-13T08:12:30.855Z,15.24
2017-10-13T08:13:30.845Z,15.27
2017-10-13T08:14:31.162Z,15.24
2017-10-13T08:15:30.478Z,15.26
2017-10-13T08:16:30.802Z,15.3
2017-10-13T08:17:30.554Z,15.28
2017-10-13T08:18:31.105Z,15.26
2017-10-13T08:19:30.773Z,15.26
2017-10-13T08:20:31.081Z,15.21
2017-10-13T08:21:30.398Z,15.33
2017-10-13T08:22:30.721Z,15.33
2017-10-13T08:23:31.246Z,15.35
2017-10-13T08:24:30.691Z,15.36
2017-10-13T08:25:30.683Z,15.38
2017-10-13T08:26:30.668Z,15.43
2017-10-13T08:27:30.991Z,15.41
2017-10-13T08:28:30.310Z,15.38
2017-10-13T08:29:30.631Z,15.48
2017-10-13T08:30:30.612Z,15.48
2017-10-13T08:31:30.973Z,15.45
2017-10-13T08:32:30.936Z,15.54
2017-10-13T08:33:30.583Z,15.54
2017-10-13T08:34:30.234Z,15.51
2017-10-13T08:35:30.220Z,15.6
2017-10-13T08:36:30.870Z,15.64
2017-10-13T08:37:30.861Z,15.6
2017-10-13T08:38:30.516Z,15.74
2017-10-13T08:39:30.839Z,15.7
2017-10-13T08:40:30.822Z,15.74
2017-10-13T08:41:30.821Z,15.84
2017-10-13T08:42:30.484Z,15.78
2017-10-13T08:43:30.454Z,15.82
2017-10-13T08:44:30.106Z,15.85
2017-10-13T08:45:30.089Z,15.89
2017-10-13T08:46:30.428Z,15.93
2017-10-13T08:47:30.400Z,15.94
2017-10-13T08:48:30.393Z,16.03
2017-10-13T08:49:30.375Z,16.04
2017-10-13T08:50:30.366Z,16.04
2017-10-13T08:51:30.692Z,16.04
2017-10-13T08:52:30.346Z,16.12
2017-10-13T08:53:30.327Z,16.12
2017-10-13T08:54:30.312Z,16.11
2017-10-13T08:55:29.968Z,16.14
2017-10-13T08:56:30.632Z,16.22
2017-10-13T08:57:29.949Z,16.12
2017-10-13T08:58:29.946Z,16.15
2017-10-13T08:59:29.916Z,16.22
2017-10-13T09:00:29.911Z,16.18
2017-10-13T09:01:29.894Z,16.27
2017-10-13T09:02:30.211Z,16.2
2017-10-13T09:03:30.210Z,16.25
2017-10-13T09:04:30.529Z,16.26
2017-10-13T09:05:30.511Z,16.27
2017-10-13T09:06:30.168Z,16.25
2017-10-13T09:07:30.161Z,16.34
2017-10-13T09:08:30.148Z,16.37
2017-10-13T09:09:30.475Z,16.35
2017-10-13T09:10:30.126Z,16.45
2017-10-13T09:11:30.106Z,16.49
2017-10-13T09:12:30.096Z,16.53
2017-10-13T09:13:30.417Z,16.6
2017-10-13T09:14:30.433Z,16.67
2017-10-13T09:15:30.064Z,16.68
2017-10-13T09:16:30.048Z,16.63
2017-10-13T09:17:30.036Z,16.73
2017-10-13T09:18:30.026Z,16.7
2017-10-13T09:19:30.347Z,16.62
2017-10-13T09:20:29.998Z,16.59
2017-10-13T09:21:30.334Z,16.74
2017-10-13T09:22:29.644Z,16.74
2017-10-13T09:23:29.630Z,16.74
2017-10-13T09:24:40.911Z,16.77
2017-10-13T09:25:29.611Z,16.63
2017-10-13T09:26:29.943Z,16.81
2017-10-13T09:27:29.926Z,16.88
2017-10-13T09:28:30.254Z,16.99
2017-10-13T09:29:29.895Z,17.07
2017-10-13T09:30:30.246Z,17.15
2017-10-13T09:31:29.545Z,17.25
2017-10-13T09:32:29.880Z,17.23
2017-10-13T09:33:29.905Z,17.2
2017-10-13T09:34:30.223Z,17.14
2017-10-13T09:35:29.833Z,17.06
2017-10-13T09:36:29.497Z,17.03
2017-10-13T09:37:29.808Z,16.93
2017-10-13T09:38:30.181Z,16.85
2017-10-13T09:39:29.786Z,16.89
2017-10-13T09:40:29.790Z,16.83
2017-10-13T09:41:29.764Z,16.89
2017-10-13T09:42:29.456Z,16.93
2017-10-13T09:43:29.793Z,16.99
2017-10-13T09:44:29.741Z,16.92
2017-10-13T09:45:29.418Z,16.96
2017-10-13T09:46:30.064Z,16.99
2017-10-13T09:47:30.037Z,17.06
2017-10-13T09:48:29.679Z,17.04
2017-10-13T09:49:29.674Z,17.1
2017-10-13T09:50:29.656Z,17.14
2017-10-13T09:51:29.311Z,17.17
2017-10-13T09:52:29.302Z,17.25
2017-10-13T09:53:29.628Z,17.28
2017-10-13T09:54:29.631Z,17.33
2017-10-13T09:55:29.947Z,17.32
2017-10-13T09:56:29.262Z,17.38
2017-10-13T09:57:29.584Z,17.43
2017-10-13T09:58:29.288Z,17.51
2017-10-13T09:59:29.225Z,17.51
2017-10-13T10:00:29.896Z,17.78
2017-10-13T10:01:29.890Z,17.79
2017-10-13T10:02:29.861Z,17.85
2017-10-13T10:03:29.519Z,17.94
2017-10-13T10:04:29.170Z,17.99
2017-10-13T10:05:29.176Z,18.03
2017-10-13T10:06:29.483Z,18.07
2017-10-13T10:07:29.815Z,17.97
2017-10-13T10:08:29.458Z,17.89
2017-10-13T10:09:29.455Z,17.91
2017-10-13T10:10:29.437Z,17.88
2017-10-13T10:11:29.438Z,17.82
2017-10-13T10:12:29.420Z,17.85
2017-10-13T10:13:29.762Z,17.76
2017-10-13T10:14:29.401Z,17.7
2017-10-13T10:15:29.726Z,17.62
2017-10-13T10:16:29.047Z,17.67
2017-10-13T10:17:29.727Z,17.54
2017-10-13T10:18:29.691Z,17.57
2017-10-13T10:19:29.682Z,17.59
2017-10-13T10:20:29.697Z,17.54
2017-10-13T10:21:28.998Z,17.57
2017-10-13T10:22:28.989Z,17.54
2017-10-13T10:23:29.508Z,17.64
2017-10-13T10:24:29.327Z,17.64
2017-10-13T10:25:29.332Z,17.69
2017-10-13T10:26:29.272Z,17.57
2017-10-13T10:27:29.632Z,17.53
2017-10-13T10:28:29.596Z,17.69
2017-10-13T10:29:28.921Z,17.63
2017-10-13T10:30:29.563Z,17.7
2017-10-13T10:31:29.219Z,17.78
2017-10-13T10:32:29.205Z,17.82
2017-10-13T10:33:28.915Z,17.89
2017-10-13T10:34:29.213Z,18.02
2017-10-13T10:35:29.189Z,17.95
2017-10-13T10:36:29.168Z,18.07
2017-10-13T10:37:28.840Z,18.04
2017-10-13T10:38:29.146Z,18.17
2017-10-13T10:39:29.481Z,18.09
2017-10-13T10:40:29.135Z,18.13
2017-10-13T10:41:29.131Z,18.13
2017-10-13T10:42:28.775Z,18.12
2017-10-13T10:43:29.443Z,18.18
2017-10-13T10:44:29.444Z,18.19
2017-10-13T10:45:28.738Z,18.17
2017-10-13T10:46:29.063Z,18.17
2017-10-13T10:47:29.420Z,17.99
2017-10-13T10:48:28.707Z,18.02
2017-10-13T10:49:29.049Z,17.95
2017-10-13T10:50:29.364Z,18.02
2017-10-13T10:51:29.014Z,17.95
2017-10-13T10:52:29.343Z,17.84
2017-10-13T10:53:28.663Z,17.97
2017-10-13T10:54:29.342Z,17.92
2017-10-13T10:55:29.307Z,18
2017-10-13T10:56:29.334Z,18
2017-10-13T10:57:28.945Z,17.92
2017-10-13T10:58:28.943Z,17.92
2017-10-13T10:59:28.602Z,17.94
2017-10-13T11:00:28.940Z,17.95
2017-10-13T11:01:28.593Z,18
2017-10-13T11:02:28.906Z,17.97
2017-10-13T11:03:29.270Z,18.02
2017-10-13T11:04:28.888Z,17.97
2017-10-13T11:05:28.875Z,17.94
2017-10-13T11:06:28.536Z,18.03
2017-10-13T11:07:28.851Z,18.15
2017-10-13T11:08:28.838Z,18.29
2017-10-13T11:09:28.507Z,18.21
2017-10-13T11:10:28.817Z,18.37
2017-10-13T11:11:28.815Z,18.46
2017-10-13T11:12:29.134Z,18.54
2017-10-13T11:13:28.795Z,18.54
2017-10-13T11:14:28.785Z,18.57
2017-10-13T11:15:29.106Z,18.55
2017-10-13T11:16:28.441Z,18.5
2017-10-13T11:17:28.764Z,18.68
2017-10-13T11:18:29.130Z,18.7
2017-10-13T11:19:28.403Z,18.74
2017-10-13T11:20:28.741Z,18.64
2017-10-13T11:21:29.052Z,18.79
2017-10-13T11:22:28.701Z,18.94
2017-10-13T11:23:29.025Z,19.02
2017-10-13T11:24:29.016Z,19.13
2017-10-13T11:25:29.026Z,19.21
2017-10-13T11:26:28.691Z,19.13
2017-10-13T11:27:28.988Z,19.14
2017-10-13T11:28:28.645Z,19.13
2017-10-13T11:29:28.659Z,19.05
2017-10-13T11:30:28.626Z,19.01
2017-10-13T11:31:28.620Z,18.97
2017-10-13T11:32:28.622Z,18.97
2017-10-13T11:33:28.980Z,18.95
2017-10-13T11:34:28.253Z,18.97
2017-10-13T11:35:28.243Z,19.02
2017-10-13T11:36:28.573Z,19.1
2017-10-13T11:37:28.897Z,19.15
2017-10-13T11:38:28.903Z,19.14
2017-10-13T11:39:28.549Z,19.14
2017-10-13T11:40:28.534Z,19.11
2017-10-13T11:41:28.528Z,19.05
2017-10-13T11:42:28.529Z,19.23
2017-10-13T11:43:28.871Z,19.23
2017-10-13T11:44:28.841Z,19.28
2017-10-13T11:45:28.502Z,19.28
2017-10-13T11:46:28.497Z,19.31
2017-10-13T11:47:28.810Z,19.25
2017-10-13T11:48:28.469Z,19.25
2017-10-13T11:49:28.475Z,19.11
2017-10-13T11:50:28.121Z,19.1
2017-10-13T11:51:28.447Z,19.33
2017-10-13T11:52:28.765Z,19.5
2017-10-13T11:53:28.425Z,19.76
2017-10-13T11:54:28.418Z,19.97
2017-10-13T11:55:28.427Z,20.13
2017-10-13T11:56:28.060Z,20.28
2017-10-13T11:57:28.066Z,20.43
2017-10-13T11:58:28.383Z,20.41
2017-10-13T11:59:28.372Z,20.65
2017-10-13T12:00:28.030Z,20.43
2017-10-13T12:01:28.024Z,20.47
2017-10-13T12:02:28.348Z,20.27
2017-10-13T12:03:28.342Z,20.18
2017-10-13T12:04:28.338Z,20.27
2017-10-13T12:05:28.013Z,20.62
2017-10-13T12:06:28.323Z,20.79
2017-10-13T12:07:28.323Z,20.66
2017-10-13T12:08:28.316Z,20.62
2017-10-13T12:09:27.977Z,20.69
2017-10-13T12:10:28.313Z,20.68
2017-10-13T12:11:27.962Z,20.5
2017-10-13T12:12:28.304Z,20.8
2017-10-13T12:13:28.282Z,21.24
2017-10-13T12:14:28.608Z,21.48
2017-10-13T12:15:28.272Z,21.81
2017-10-13T12:16:28.266Z,21.69
2017-10-13T12:17:28.586Z,21.78
2017-10-13T12:18:28.249Z,22.17
2017-10-13T12:19:28.583Z,22.68
2017-10-13T12:20:28.241Z,22.65
2017-10-13T12:21:28.569Z,22.5
2017-10-13T12:22:28.253Z,22.64
2017-10-13T12:23:28.427Z,22.44
2017-10-13T12:24:27.886Z,22.38
2017-10-13T12:25:28.216Z,22.25
2017-10-13T12:26:27.888Z,22.04
2017-10-13T12:27:27.891Z,22.04
2017-10-13T12:28:28.558Z,22.12
2017-10-13T12:29:28.200Z,22.47
2017-10-13T12:30:27.863Z,22.87
2017-10-13T12:31:28.195Z,23.12
2017-10-13T12:32:28.196Z,23.02
2017-10-13T12:33:28.185Z,23.19
2017-10-13T12:34:28.511Z,23.4
2017-10-13T12:35:28.182Z,23.53
2017-10-13T12:36:28.506Z,23.82
2017-10-13T12:37:28.501Z,24.05
2017-10-13T12:38:28.495Z,24.35
2017-10-13T12:39:28.173Z,24.56
2017-10-13T12:40:28.160Z,24.87
2017-10-13T12:41:28.167Z,25.07
2017-10-13T12:42:28.154Z,25.07
2017-10-13T12:43:27.820Z,25.12
2017-10-13T12:44:28.166Z,25
2017-10-13T12:45:28.483Z,24.63
2017-10-13T12:46:28.152Z,24.59
2017-10-13T12:47:28.484Z,24.52
2017-10-13T12:48:27.811Z,24.41
2017-10-13T12:49:27.808Z,24.52
2017-10-13T12:50:28.482Z,24.16
2017-10-13T12:51:28.141Z,24.22
2017-10-13T12:52:27.805Z,24
2017-10-13T12:53:28.147Z,24.13
2017-10-13T12:54:27.805Z,23.85